createdAt,value
2023-02-23T00:00:28.835Z,34.50
2023-02-23T00:02:58.946Z,34.57
2023-02-23T00:05:26.623Z,35.60
2023-02-23T00:07:54.266Z,34.77
2023-02-23T00:10:21.427Z,37.03
2023-02-23T00:12:49.541Z,35.60
2023-02-23T00:15:16.183Z,36.33
2023-02-23T00:17:42.757Z,37.37
2023-02-23T00:20:11.604Z,37.90
2023-02-23T00:22:41.524Z,38.20
2023-02-23T00:25:09.076Z,39.10
2023-02-23T00:27:44.239Z,39.00
2023-02-23T00:30:12.456Z,38.23
2023-02-23T00:32:39.533Z,39.37
2023-02-23T00:35:11.654Z,38.13
2023-02-23T00:37:38.329Z,38.67
2023-02-23T00:40:13.224Z,39.67
2023-02-23T00:42:40.310Z,39.10
2023-02-23T00:45:11.760Z,38.00
2023-02-23T00:47:39.311Z,38.70
2023-02-23T00:50:06.223Z,38.27
2023-02-23T00:52:33.194Z,39.67
2023-02-23T00:55:02.797Z,37.97
2023-02-23T00:57:29.429Z,40.90
2023-02-23T00:59:56.100Z,39.50
2023-02-23T01:02:25.383Z,39.53
2023-02-23T01:04:52.016Z,41.47
2023-02-23T01:07:18.648Z,41.17
2023-02-23T01:09:45.198Z,41.83
2023-02-23T01:12:12.263Z,38.73
2023-02-23T01:14:38.980Z,40.33
2023-02-23T01:17:05.595Z,40.53
2023-02-23T01:19:34.244Z,39.37
2023-02-23T01:22:03.637Z,38.07
2023-02-23T01:24:30.289Z,37.43
2023-02-23T01:26:56.896Z,36.53
2023-02-23T01:29:23.817Z,36.87
2023-02-23T01:31:53.618Z,39.60
2023-02-23T01:34:21.828Z,37.63
2023-02-23T01:36:48.598Z,41.60
2023-02-23T01:39:16.559Z,41.40
2023-02-23T01:41:43.270Z,41.73
2023-02-23T01:44:12.674Z,41.20
2023-02-23T01:46:40.682Z,40.90
2023-02-23T01:49:15.546Z,40.77
2023-02-23T01:51:55.793Z,41.27
2023-02-23T01:54:24.800Z,41.00
2023-02-23T01:56:58.355Z,39.50
2023-02-23T01:59:47.559Z,39.53
2023-02-23T02:02:14.388Z,40.80
2023-02-23T02:04:45.368Z,40.13
2023-02-23T02:07:14.382Z,41.43
2023-02-23T02:09:57.142Z,44.07
2023-02-23T02:12:23.755Z,42.20
2023-02-23T02:14:52.072Z,43.70
2023-02-23T02:17:21.016Z,40.93
2023-02-23T02:19:50.967Z,40.97
2023-02-23T02:22:36.147Z,43.20
2023-02-23T02:25:12.070Z,43.37
2023-02-23T02:28:12.060Z,42.57
2023-02-23T02:30:44.832Z,41.43
2023-02-23T02:33:12.451Z,40.17
2023-02-23T02:35:47.877Z,41.03
2023-02-23T02:38:26.185Z,40.10
2023-02-23T02:41:03.995Z,40.43
2023-02-23T02:43:30.521Z,38.47
2023-02-23T02:46:02.446Z,40.27
2023-02-23T02:48:46.769Z,41.47
2023-02-23T02:51:17.625Z,41.13
2023-02-23T02:53:44.516Z,41.30
2023-02-23T02:56:12.300Z,42.90
2023-02-23T02:58:39.155Z,43.77
2023-02-23T03:01:27.495Z,41.93
2023-02-23T03:04:12.974Z,42.77
2023-02-23T03:07:04.434Z,42.00
2023-02-23T03:10:07.961Z,43.67
2023-02-23T03:13:12.495Z,42.43
2023-02-23T03:16:00.930Z,41.20
2023-02-23T03:18:49.845Z,42.40
2023-02-23T03:21:39.861Z,42.03
2023-02-23T03:24:25.200Z,42.80
2023-02-23T03:27:16.153Z,44.03
2023-02-23T03:30:01.749Z,41.67
2023-02-23T03:32:58.718Z,43.37
2023-02-23T03:35:45.593Z,43.93
2023-02-23T03:38:35.169Z,44.20
2023-02-23T03:41:21.450Z,45.13
2023-02-23T03:44:15.628Z,42.90
2023-02-23T03:47:01.979Z,43.57
2023-02-23T03:49:49.932Z,44.47
2023-02-23T03:52:37.438Z,42.50
2023-02-23T03:55:31.808Z,42.57
2023-02-23T03:58:20.331Z,42.40
2023-02-23T04:01:07.586Z,41.07
2023-02-23T04:03:54.883Z,41.40
2023-02-23T04:06:42.339Z,41.83
2023-02-23T04:09:27.554Z,39.70
2023-02-23T04:12:19.465Z,41.53
2023-02-23T04:14:50.908Z,39.63
2023-02-23T04:17:18.481Z,37.83
2023-02-23T04:20:03.802Z,38.77
2023-02-23T04:22:30.488Z,36.50
2023-02-23T04:24:57.052Z,37.70
2023-02-23T04:27:24.075Z,37.60
2023-02-23T04:29:50.716Z,36.50
2023-02-23T04:32:18.421Z,35.13
2023-02-23T04:34:45.033Z,35.23
2023-02-23T04:37:12.717Z,36.47
2023-02-23T04:39:39.558Z,35.60
2023-02-23T04:42:06.204Z,36.33
2023-02-23T04:44:32.777Z,37.50
2023-02-23T04:46:59.464Z,37.93
2023-02-23T04:49:26.119Z,37.43
2023-02-23T04:51:52.694Z,36.87
2023-02-23T04:54:19.340Z,38.13
2023-02-23T04:56:46.003Z,36.73
2023-02-23T04:59:13.386Z,38.80
2023-02-23T05:01:40.021Z,36.20
2023-02-23T05:04:06.662Z,38.53
2023-02-23T05:06:33.275Z,38.13
2023-02-23T05:08:59.958Z,37.87
2023-02-23T05:11:27.848Z,37.90
2023-02-23T05:13:54.707Z,40.03
2023-02-23T05:16:21.522Z,37.87
2023-02-23T05:18:48.336Z,38.37
2023-02-23T05:21:14.919Z,37.40
2023-02-23T05:23:41.689Z,36.50
2023-02-23T05:26:10.447Z,38.57
2023-02-23T05:28:38.672Z,36.43
2023-02-23T05:31:06.046Z,35.50
2023-02-23T05:33:33.284Z,36.10
2023-02-23T05:36:00.243Z,36.03
2023-02-23T05:38:27.401Z,34.97
2023-02-23T05:40:53.992Z,36.43
2023-02-23T05:43:20.605Z,36.87
2023-02-23T05:45:47.245Z,35.77
2023-02-23T05:48:14.103Z,36.70
2023-02-23T05:50:40.744Z,34.50
2023-02-23T05:53:07.453Z,35.60
2023-02-23T05:55:34.020Z,34.97
2023-02-23T05:58:00.866Z,35.47
2023-02-23T06:00:27.972Z,36.07
2023-02-23T06:02:54.774Z,33.60
2023-02-23T06:05:21.415Z,34.90
2023-02-23T06:07:48.275Z,35.70
2023-02-23T06:10:14.966Z,34.97
2023-02-23T06:12:41.676Z,33.53
2023-02-23T06:15:08.688Z,34.27
2023-02-23T06:17:35.786Z,35.33
2023-02-23T06:20:05.112Z,33.97
2023-02-23T06:22:31.807Z,33.50
2023-02-23T06:24:58.501Z,33.00
2023-02-23T06:27:26.034Z,35.23
2023-02-23T06:29:52.821Z,32.63
2023-02-23T06:32:19.585Z,34.93
2023-02-23T06:34:48.817Z,33.87
2023-02-23T06:37:15.789Z,34.43
2023-02-23T06:39:42.385Z,34.87
2023-02-23T06:42:08.936Z,34.50
2023-02-23T06:44:35.797Z,33.30
2023-02-23T06:47:05.724Z,33.30
2023-02-23T06:49:32.580Z,33.80
2023-02-23T06:51:59.264Z,34.43
2023-02-23T06:54:26.555Z,33.27
2023-02-23T06:56:54.827Z,35.90
2023-02-23T06:59:21.698Z,35.87
2023-02-23T07:01:48.253Z,34.43
2023-02-23T07:04:16.740Z,34.03
2023-02-23T07:06:43.513Z,34.60
2023-02-23T07:09:10.294Z,36.63
2023-02-23T07:11:38.023Z,36.23
2023-02-23T07:14:04.582Z,35.37
2023-02-23T07:16:31.201Z,35.77
2023-02-23T07:18:57.955Z,35.80
2023-02-23T07:21:24.555Z,38.90
2023-02-23T07:23:51.212Z,38.87
2023-02-23T07:26:18.492Z,39.53
2023-02-23T07:28:45.222Z,41.20
2023-02-23T07:31:12.294Z,39.90
2023-02-23T07:33:38.899Z,38.13
2023-02-23T07:36:05.822Z,39.77
2023-02-23T07:38:32.422Z,37.37
2023-02-23T07:40:59.175Z,39.07
2023-02-23T07:43:25.788Z,35.77
2023-02-23T07:45:52.480Z,37.30
2023-02-23T07:48:19.583Z,36.03
2023-02-23T07:50:46.218Z,36.33
2023-02-23T07:53:13.040Z,35.43
2023-02-23T07:55:40.242Z,34.40
2023-02-23T07:58:07.373Z,34.33
2023-02-23T08:00:34.364Z,34.43
2023-02-23T08:03:01.466Z,35.07
2023-02-23T08:05:28.419Z,34.53
2023-02-23T08:07:55.970Z,34.67
2023-02-23T08:10:23.228Z,34.77
2023-02-23T08:12:49.934Z,33.30
2023-02-23T08:15:16.526Z,34.80
2023-02-23T08:17:43.592Z,34.70
2023-02-23T08:20:10.711Z,34.00
2023-02-23T08:22:48.871Z,34.03
2023-02-23T08:25:15.836Z,34.80
2023-02-23T08:27:42.509Z,35.20
2023-02-23T08:30:09.911Z,35.47
2023-02-23T08:32:36.630Z,34.97
2023-02-23T08:35:03.355Z,35.57
2023-02-23T08:37:30.193Z,34.50
2023-02-23T08:39:57.329Z,36.23
2023-02-23T08:42:23.937Z,37.07
2023-02-23T08:44:50.557Z,37.87
2023-02-23T08:47:21.914Z,36.40
2023-02-23T08:49:48.801Z,36.00
2023-02-23T08:52:15.382Z,35.20
2023-02-23T08:54:42.028Z,36.53
2023-02-23T08:57:09.004Z,36.20
2023-02-23T08:59:37.653Z,35.80
2023-02-23T09:02:04.300Z,35.53
2023-02-23T09:04:35.336Z,34.27
2023-02-23T09:07:03.075Z,34.97
2023-02-23T09:09:29.725Z,35.77
2023-02-23T09:11:57.570Z,36.70
2023-02-23T09:14:26.010Z,35.87
2023-02-23T09:16:52.657Z,35.53
2023-02-23T09:19:20.184Z,37.50
2023-02-23T09:21:46.888Z,36.47
2023-02-23T09:24:13.696Z,36.87
2023-02-23T09:26:40.249Z,36.57
2023-02-23T09:29:07.811Z,36.40
2023-02-23T09:31:34.607Z,36.47
2023-02-23T09:34:02.279Z,37.03
2023-02-23T09:36:29.694Z,37.00
2023-02-23T09:38:57.817Z,40.57
2023-02-23T09:41:37.716Z,44.47
2023-02-23T09:44:21.841Z,43.73
2023-02-23T09:46:48.393Z,45.50
2023-02-23T09:49:19.947Z,49.13
2023-02-23T09:51:48.613Z,48.43
2023-02-23T09:54:16.405Z,53.40
2023-02-23T09:56:49.878Z,49.10
2023-02-23T09:59:17.846Z,47.83
2023-02-23T10:02:03.077Z,43.90
2023-02-23T10:04:37.918Z,44.90
2023-02-23T10:07:04.571Z,39.67
2023-02-23T10:09:52.147Z,40.53
2023-02-23T10:12:24.967Z,41.20
2023-02-23T10:15:10.437Z,40.10
2023-02-23T10:17:39.726Z,36.37
2023-02-23T10:20:23.408Z,36.50
2023-02-23T10:22:51.398Z,33.23
2023-02-23T10:25:23.006Z,37.03
2023-02-23T10:27:50.132Z,36.60
2023-02-23T10:30:24.742Z,36.60
2023-02-23T10:32:51.917Z,36.30
2023-02-23T10:35:20.443Z,37.70
2023-02-23T10:37:47.293Z,39.30
2023-02-23T10:40:15.666Z,39.27
2023-02-23T10:42:42.333Z,34.87
2023-02-23T10:45:28.610Z,32.30
2023-02-23T10:47:57.938Z,31.53
2023-02-23T10:50:28.509Z,33.57
2023-02-23T10:53:16.578Z,31.13
2023-02-23T10:55:46.882Z,33.10
2023-02-23T10:58:18.381Z,31.60
2023-02-23T11:00:52.512Z,32.17
2023-02-23T11:03:24.561Z,31.43
2023-02-23T11:05:53.086Z,32.70
2023-02-23T11:08:25.116Z,28.97
2023-02-23T11:10:57.000Z,30.23
2023-02-23T11:13:24.236Z,30.17
2023-02-23T11:15:58.499Z,31.83
2023-02-23T11:18:26.227Z,31.60
2023-02-23T11:20:53.117Z,29.43
2023-02-23T11:23:23.439Z,29.47
2023-02-23T11:25:52.896Z,31.00
2023-02-23T11:28:30.397Z,30.10
2023-02-23T11:30:58.585Z,29.37
2023-02-23T11:33:29.782Z,29.70
2023-02-23T11:36:00.407Z,29.60
2023-02-23T11:38:28.922Z,30.00
2023-02-23T11:41:02.954Z,28.17
2023-02-23T11:43:29.617Z,30.80
2023-02-23T11:45:57.680Z,30.77
2023-02-23T11:48:30.498Z,32.37
2023-02-23T11:50:57.596Z,34.00
2023-02-23T11:53:29.976Z,36.70
2023-02-23T11:55:59.364Z,38.63
2023-02-23T11:58:32.199Z,35.63
2023-02-23T12:01:01.657Z,34.37
2023-02-23T12:03:30.641Z,31.70
2023-02-23T12:05:59.402Z,31.37
2023-02-23T12:08:47.504Z,31.50
2023-02-23T12:11:17.142Z,32.77
2023-02-23T12:13:47.546Z,30.70
2023-02-23T12:16:27.275Z,32.90
2023-02-23T12:18:59.679Z,31.93
2023-02-23T12:21:30.308Z,34.03
2023-02-23T12:24:13.833Z,31.70
2023-02-23T12:26:53.884Z,34.87
2023-02-23T12:29:23.691Z,35.97
2023-02-23T12:31:54.596Z,35.23
2023-02-23T12:34:30.486Z,36.07
2023-02-23T12:37:00.192Z,34.10
2023-02-23T12:39:32.021Z,32.60
2023-02-23T12:42:07.291Z,34.23
2023-02-23T12:44:41.301Z,35.97
2023-02-23T12:47:15.125Z,30.67
2023-02-23T12:49:44.639Z,28.90
2023-02-23T12:52:22.415Z,29.80
2023-02-23T12:54:49.142Z,28.27
2023-02-23T12:57:23.864Z,30.53
2023-02-23T12:59:53.438Z,24.93
2023-02-23T13:02:20.042Z,23.77
2023-02-23T13:04:49.675Z,26.37
2023-02-23T13:07:16.517Z,24.43
2023-02-23T13:10:06.105Z,26.53
2023-02-23T13:12:45.953Z,22.27
2023-02-23T13:15:24.978Z,23.87
2023-02-23T13:17:51.631Z,19.33
2023-02-23T13:20:22.613Z,19.67
2023-02-23T13:22:56.249Z,18.87
2023-02-23T13:25:33.966Z,16.87
2023-02-23T13:28:01.843Z,16.97
2023-02-23T13:30:32.433Z,15.47
2023-02-23T13:33:03.986Z,19.30
2023-02-23T13:35:35.573Z,15.10
2023-02-23T13:38:13.726Z,17.37
2023-02-23T13:40:46.685Z,18.10
2023-02-23T13:43:23.362Z,16.23
2023-02-23T13:45:58.721Z,14.80
2023-02-23T13:48:29.836Z,14.70
2023-02-23T13:50:59.506Z,16.53
2023-02-23T13:53:35.055Z,16.03
2023-02-23T13:56:06.922Z,16.60
2023-02-23T13:58:33.612Z,14.40
2023-02-23T14:01:05.854Z,14.63
2023-02-23T14:03:36.610Z,15.83
2023-02-23T14:06:04.053Z,15.90
2023-02-23T14:08:33.319Z,15.47
2023-02-23T14:11:00.590Z,15.70
2023-02-23T14:13:29.322Z,15.20
2023-02-23T14:16:14.963Z,14.57
2023-02-23T14:19:00.588Z,14.43
2023-02-23T14:21:33.418Z,13.70
2023-02-23T14:24:19.482Z,12.87
2023-02-23T14:27:08.714Z,15.30
2023-02-23T14:29:40.399Z,15.23
2023-02-23T14:32:13.735Z,15.07
2023-02-23T14:35:00.744Z,14.70
2023-02-23T14:37:32.028Z,14.57
2023-02-23T14:40:31.995Z,14.83
2023-02-23T14:43:01.507Z,14.80
2023-02-23T14:45:30.567Z,15.10
2023-02-23T14:48:06.680Z,14.23
2023-02-23T14:50:34.806Z,14.97
2023-02-23T14:53:02.330Z,15.67
2023-02-23T14:55:32.656Z,13.77
2023-02-23T14:57:59.529Z,13.93
2023-02-23T15:00:26.133Z,14.00
2023-02-23T15:02:57.474Z,14.30
2023-02-23T15:05:29.817Z,13.67
2023-02-23T15:08:01.115Z,15.00
2023-02-23T15:10:30.146Z,15.43
2023-02-23T15:12:57.451Z,14.87
2023-02-23T15:15:25.595Z,15.50
2023-02-23T15:17:57.900Z,15.13
2023-02-23T15:20:28.907Z,14.63
2023-02-23T15:22:57.537Z,16.33
2023-02-23T15:25:26.163Z,15.23
2023-02-23T15:27:53.216Z,15.17
2023-02-23T15:30:21.112Z,15.00
2023-02-23T15:32:48.292Z,15.80
2023-02-23T15:35:15.343Z,15.83
2023-02-23T15:37:46.647Z,16.23
2023-02-23T15:40:19.258Z,16.10
2023-02-23T15:42:48.358Z,15.67
2023-02-23T15:45:15.549Z,16.37
2023-02-23T15:47:42.494Z,17.00
2023-02-23T15:50:09.235Z,17.00
2023-02-23T15:52:39.755Z,17.93
2023-02-23T15:55:10.316Z,19.07
2023-02-23T15:57:54.684Z,19.50
2023-02-23T16:00:33.919Z,22.20
2023-02-23T16:03:02.886Z,23.07
2023-02-23T16:05:41.948Z,23.00
2023-02-23T16:08:23.109Z,23.47
2023-02-23T16:10:51.697Z,21.50
2023-02-23T16:13:21.363Z,22.17
2023-02-23T16:15:49.086Z,21.60
2023-02-23T16:18:20.051Z,20.77
2023-02-23T16:20:57.502Z,21.10
2023-02-23T16:23:33.440Z,23.00
2023-02-23T16:26:01.876Z,21.67
2023-02-23T16:28:30.963Z,21.17
2023-02-23T16:31:02.043Z,21.77
2023-02-23T16:34:03.508Z,22.63
2023-02-23T16:36:41.191Z,22.70
2023-02-23T16:39:11.439Z,22.50
2023-02-23T16:41:38.303Z,22.40
2023-02-23T16:44:06.088Z,21.93
2023-02-23T16:46:41.213Z,21.23
2023-02-23T16:49:10.165Z,23.93
2023-02-23T16:51:37.062Z,21.50
2023-02-23T16:54:04.144Z,20.97
2023-02-23T16:56:31.348Z,20.50
2023-02-23T16:59:01.248Z,20.50
2023-02-23T17:01:27.938Z,20.83
2023-02-23T17:03:54.725Z,21.50
2023-02-23T17:06:22.270Z,21.30
2023-02-23T17:08:57.414Z,21.50
2023-02-23T17:11:24.730Z,20.97
2023-02-23T17:13:51.529Z,20.10
2023-02-23T17:16:18.657Z,19.53
2023-02-23T17:18:45.518Z,19.33
2023-02-23T17:21:14.379Z,20.97
2023-02-23T17:24:07.822Z,18.73
2023-02-23T17:26:34.513Z,21.67
2023-02-23T17:29:01.484Z,20.70
2023-02-23T17:31:28.874Z,20.43
2023-02-23T17:33:55.826Z,20.13
2023-02-23T17:36:23.932Z,20.03
2023-02-23T17:38:50.772Z,19.17
2023-02-23T17:41:18.623Z,19.80
2023-02-23T17:43:45.670Z,19.23
2023-02-23T17:46:13.171Z,18.20
2023-02-23T17:48:40.899Z,18.87
2023-02-23T17:51:12.088Z,19.00
2023-02-23T17:53:39.846Z,19.50
2023-02-23T17:56:06.655Z,19.57
2023-02-23T17:58:33.268Z,19.87
2023-02-23T18:01:03.924Z,18.07
2023-02-23T18:03:32.180Z,19.57
2023-02-23T18:05:59.720Z,18.03
2023-02-23T18:08:26.298Z,18.03
2023-02-23T18:10:54.310Z,18.17
2023-02-23T18:13:21.353Z,18.53
2023-02-23T18:15:48.911Z,19.83
2023-02-23T18:18:15.910Z,17.93
2023-02-23T18:20:48.199Z,17.00
2023-02-23T18:23:15.541Z,18.27
2023-02-23T18:25:42.211Z,17.60
2023-02-23T18:28:10.370Z,16.77
2023-02-23T18:30:37.715Z,17.33
2023-02-23T18:33:05.111Z,16.70
2023-02-23T18:35:33.377Z,16.97
2023-02-23T18:38:01.236Z,16.20
2023-02-23T18:40:27.932Z,17.10
2023-02-23T18:42:55.809Z,16.17
2023-02-23T18:45:22.401Z,17.13
2023-02-23T18:47:49.438Z,15.50
2023-02-23T18:50:19.354Z,16.03
2023-02-23T18:52:47.276Z,15.37
2023-02-23T18:55:14.496Z,17.67
2023-02-23T18:57:41.446Z,18.47
2023-02-23T19:00:13.679Z,17.40
2023-02-23T19:02:41.516Z,18.57
2023-02-23T19:05:09.034Z,18.50
2023-02-23T19:07:35.694Z,17.37
2023-02-23T19:10:02.328Z,16.53
2023-02-23T19:12:29.338Z,15.97
2023-02-23T19:14:57.689Z,17.73
2023-02-23T19:17:28.993Z,16.70
2023-02-23T19:19:56.212Z,16.17
2023-02-23T19:22:24.103Z,16.37
2023-02-23T19:24:50.795Z,15.73
2023-02-23T19:27:17.830Z,15.67
2023-02-23T19:29:45.973Z,15.83
2023-02-23T19:32:16.460Z,16.67
2023-02-23T19:34:43.945Z,16.53
2023-02-23T19:37:10.601Z,15.27
2023-02-23T19:39:37.207Z,15.87
2023-02-23T19:42:03.987Z,14.97
2023-02-23T19:44:30.685Z,14.70
2023-02-23T19:46:57.674Z,14.80
2023-02-23T19:49:24.806Z,14.13
2023-02-23T19:51:52.998Z,15.30
2023-02-23T19:54:20.263Z,14.90
2023-02-23T19:56:47.210Z,15.97
2023-02-23T19:59:13.997Z,15.93
2023-02-23T20:01:40.624Z,15.17
2023-02-23T20:04:09.456Z,15.50
2023-02-23T20:06:40.910Z,15.00
2023-02-23T20:09:09.212Z,14.90
2023-02-23T20:11:35.981Z,15.07
2023-02-23T20:14:04.373Z,15.90
2023-02-23T20:16:31.376Z,15.00
2023-02-23T20:18:58.496Z,16.07
2023-02-23T20:21:29.967Z,14.47
2023-02-23T20:23:56.734Z,16.13
2023-02-23T20:26:29.310Z,15.47
2023-02-23T20:28:56.823Z,15.83
2023-02-23T20:31:27.602Z,16.43
2023-02-23T20:33:56.155Z,16.40
2023-02-23T20:36:24.276Z,16.57
2023-02-23T20:38:52.072Z,17.63
2023-02-23T20:41:19.746Z,15.70
2023-02-23T20:43:46.698Z,16.73
2023-02-23T20:46:14.259Z,17.17
2023-02-23T20:48:41.282Z,17.63
2023-02-23T20:51:13.254Z,16.77
2023-02-23T20:53:40.446Z,17.23
2023-02-23T20:56:07.912Z,19.10
2023-02-23T20:58:34.637Z,20.57
2023-02-23T21:01:06.678Z,18.63
2023-02-23T21:03:34.385Z,16.47
2023-02-23T21:06:01.235Z,16.87
2023-02-23T21:08:28.948Z,15.70
2023-02-23T21:10:55.714Z,16.20
2023-02-23T21:13:23.297Z,17.20
2023-02-23T21:16:01.285Z,17.63
2023-02-23T21:18:29.012Z,17.97
2023-02-23T21:20:59.032Z,17.70
2023-02-23T21:23:25.684Z,16.67
2023-02-23T21:25:54.044Z,17.33
2023-02-23T21:28:20.867Z,17.33
2023-02-23T21:30:47.703Z,15.83
2023-02-23T21:33:14.450Z,17.80
2023-02-23T21:35:41.329Z,16.33
2023-02-23T21:38:08.398Z,16.27
2023-02-23T21:40:35.793Z,15.77
2023-02-23T21:43:06.686Z,15.80
2023-02-23T21:45:33.345Z,14.83
2023-02-23T21:47:59.966Z,16.33
2023-02-23T21:50:26.843Z,15.47
2023-02-23T21:52:56.240Z,16.97
2023-02-23T21:55:23.036Z,15.97
2023-02-23T21:57:50.567Z,15.90
2023-02-23T22:00:19.102Z,15.50
2023-02-23T22:02:46.640Z,14.60
2023-02-23T22:05:14.854Z,15.40
2023-02-23T22:07:41.612Z,14.50
2023-02-23T22:10:08.457Z,12.93
2023-02-23T22:12:35.078Z,14.40
2023-02-23T22:15:07.236Z,14.87
2023-02-23T22:17:33.927Z,13.30
2023-02-23T22:20:00.626Z,13.70
2023-02-23T22:22:27.589Z,13.60
2023-02-23T22:24:54.154Z,13.80
2023-02-23T22:27:22.192Z,14.30
2023-02-23T22:29:48.917Z,14.13
2023-02-23T22:32:17.654Z,13.70
2023-02-23T22:34:44.925Z,14.53
2023-02-23T22:37:11.633Z,13.70
2023-02-23T22:39:41.837Z,15.87
2023-02-23T22:42:12.651Z,15.37
2023-02-23T22:44:39.556Z,17.07
2023-02-23T22:47:07.416Z,17.07
2023-02-23T22:49:34.764Z,16.80
2023-02-23T22:52:01.526Z,16.23
2023-02-23T22:54:29.140Z,14.97
2023-02-23T22:56:55.815Z,15.53
2023-02-23T22:59:22.505Z,15.40
2023-02-23T23:01:50.497Z,16.07
2023-02-23T23:04:17.542Z,15.60
2023-02-23T23:06:44.752Z,16.23
2023-02-23T23:09:12.112Z,15.60
2023-02-23T23:11:41.836Z,16.57
2023-02-23T23:14:10.337Z,15.63
2023-02-23T23:16:42.341Z,16.03
2023-02-23T23:19:12.747Z,15.73
2023-02-23T23:21:41.057Z,16.40
2023-02-23T23:24:08.017Z,15.67
2023-02-23T23:26:36.236Z,15.50
2023-02-23T23:29:07.515Z,16.90
2023-02-23T23:31:35.252Z,16.20
2023-02-23T23:34:03.802Z,16.57
2023-02-23T23:36:35.584Z,18.00
2023-02-23T23:39:02.976Z,16.83
2023-02-23T23:41:30.505Z,16.53
2023-02-23T23:43:58.213Z,16.50
2023-02-23T23:46:38.412Z,17.13
2023-02-23T23:49:08.158Z,16.60
2023-02-23T23:51:39.810Z,16.33
2023-02-23T23:54:07.710Z,15.90
2023-02-23T23:56:35.868Z,16.23
2023-02-23T23:59:02.932Z,15.23
